Time;durP1;ratioP1;P1;durP2;ratioP2;P2;SDS_P1;SDS_P2;PMS_P1;PMS_P2;Temp;Humidity;BMP_temperature;BMP_pressure;BME280_temperature;BME280_humidity;BME280_pressure;Samples;Min_cycle;Max_cycle;Signal;HPM_P1;HPM_P2
2022/02/10 00:21:35;;;;;;;15.20;13.80;;;9.10;99.90;;;;;;5113412;28;20408;-83
2022/02/10 00:34:12;;;;;;;15.50;14.00;;;9.20;99.90;;;;;;5093725;28;20434;-82
2022/02/10 00:35:04;;;;;;;15.38;13.88;;;9.10;99.90;;;;;;5129543;27;20441;-82
2022/02/10 00:37:48;;;;;;;15.82;14.32;;;9.10;99.90;;;;;;5122599;27;20903;-82
2022/02/10 00:40:14;;;;;;;15.50;14.10;;;9.20;99.90;;;;;;5098417;28;20394;-82
2022/02/10 00:42:39;;;;;;;14.73;13.43;;;9.20;99.90;;;;;;5086079;28;20422;-82
2022/02/10 00:45:06;;;;;;;14.48;13.13;;;9.10;99.90;;;;;;5102713;28;20446;-82
2022/02/10 00:47:43;;;;;;;14.65;13.23;;;9.10;99.90;;;;;;5081069;28;20394;-82
2022/02/10 00:50:09;;;;;;;15.57;14.07;;;9.10;99.90;;;;;;5074383;28;20883;-82
2022/02/10 00:52:40;;;;;;;15.97;14.47;;;9.00;99.90;;;;;;5104527;28;20387;-82
2022/02/10 00:55:06;;;;;;;15.25;13.80;;;9.10;99.90;;;;;;5113078;28;20390;-82
2022/02/10 00:57:32;;;;;;;15.75;14.25;;;9.10;99.90;;;;;;5080919;28;20387;-82
2022/02/10 01:13:24;;;;;;;16.20;14.70;;;9.00;99.90;;;;;;5110751;28;20413;-81
2022/02/10 01:29:41;;;;;;;15.83;14.33;;;8.90;99.90;;;;;;5113467;28;20505;-82
2022/02/10 01:32:07;;;;;;;16.08;14.52;;;8.90;99.90;;;;;;5079562;28;20445;-82
2022/02/10 01:34:37;;;;;;;16.05;14.55;;;9.00;99.90;;;;;;5073420;28;20408;-82
2022/02/10 01:37:03;;;;;;;16.35;14.75;;;9.00;99.90;;;;;;5074004;28;20394;-81
2022/02/10 01:39:34;;;;;;;17.50;15.80;;;9.00;99.90;;;;;;5117565;28;20416;-81
2022/02/10 02:03:48;;;;;;;17.02;15.32;;;9.00;99.90;;;;;;5079984;28;20392;-82
2022/02/10 02:06:22;;;;;;;16.67;15.07;;;9.10;99.90;;;;;;5111416;28;20375;-81
2022/02/10 02:08:47;;;;;;;16.42;14.82;;;9.10;99.90;;;;;;5091723;27;20405;-81
2022/02/10 02:11:13;;;;;;;16.10;14.60;;;9.10;99.90;;;;;;5137440;27;20368;-80
2022/02/10 02:13:39;;;;;;;16.25;14.65;;;9.10;99.90;;;;;;5121326;27;20449;-81
2022/02/10 02:16:05;;;;;;;15.95;14.45;;;9.00;99.90;;;;;;5100491;28;20369;-81
2022/02/10 02:18:31;;;;;;;16.58;14.98;;;9.10;99.90;;;;;;5101288;28;20386;-82
2022/02/10 02:20:58;;;;;;;15.77;14.27;;;9.20;99.90;;;;;;5114937;28;20388;-82
2022/02/10 02:23:26;;;;;;;16.47;14.87;;;9.20;99.90;;;;;;5098435;28;20397;-83
2022/02/10 02:25:58;;;;;;;16.02;14.52;;;9.20;99.90;;;;;;5097441;28;20398;-82
2022/02/10 02:28:24;;;;;;;16.38;14.73;;;9.10;99.90;;;;;;5094708;28;20418;-83
2022/02/10 02:31:04;;;;;;;17.67;15.88;;;9.20;99.90;;;;;;5113876;28;20760;-83
2022/02/10 02:36:38;;;;;;;17.93;16.13;;;9.10;99.90;;;;;;5097486;28;21154;-83
2022/02/10 02:39:43;;;;;;;19.15;17.17;;;9.10;99.90;;;;;;5095714;28;20437;-83
2022/02/10 03:06:36;;;;;;;17.23;15.43;;;9.00;99.90;;;;;;5094227;28;20376;-83
2022/02/10 03:09:09;;;;;;;17.73;15.85;;;9.00;99.90;;;;;;5084152;28;20460;-83
2022/02/10 03:11:37;;;;;;;16.60;14.90;;;8.90;99.90;;;;;;5087849;27;20917;-82
2022/02/10 03:14:09;;;;;;;17.63;15.50;;;9.10;99.90;;;;;;5116098;27;20373;-83
2022/02/10 03:22:22;;;;;;;17.45;15.30;;;9.00;99.90;;;;;;5110253;28;20424;-80
2022/02/10 04:03:33;;;;;;;17.17;15.38;;;8.50;99.90;;;;;;5100281;28;20932;-81
2022/02/10 04:14:13;;;;;;;16.47;14.67;;;8.50;99.90;;;;;;5124140;27;20418;-81
2022/02/10 04:16:44;;;;;;;16.67;14.98;;;8.50;99.90;;;;;;5073971;28;20900;-81
2022/02/10 04:22:06;;;;;;;16.47;14.73;;;8.50;99.90;;;;;;5111478;28;20383;-82
2022/02/10 04:27:12;;;;;;;15.98;14.48;;;8.50;99.90;;;;;;5130344;27;20460;-81
2022/02/10 04:30:14;;;;;;;16.23;14.63;;;8.50;99.90;;;;;;5098437;27;20433;-81
2022/02/10 04:38:35;;;;;;;15.98;14.27;;;8.40;99.90;;;;;;5095587;28;20428;-82
2022/02/10 04:44:09;;;;;;;17.15;15.45;;;8.40;99.90;;;;;;5124567;27;20399;-82
2022/02/10 05:00:25;;;;;;;17.83;15.30;;;8.50;99.90;;;;;;5094829;28;20376;-82
2022/02/10 05:34:47;;;;;;;15.05;13.40;;;8.60;99.90;;;;;;5120658;28;20367;-82
2022/02/10 05:37:16;;;;;;;14.77;13.30;;;8.60;99.90;;;;;;5106839;28;20479;-82
2022/02/10 05:39:45;;;;;;;16.13;14.48;;;8.60;99.90;;;;;;5139846;28;20377;-83
2022/02/10 05:45:06;;;;;;;16.70;15.00;;;8.50;99.90;;;;;;5099864;28;20457;-82
2022/02/10 05:55:39;;;;;;;17.45;15.55;;;8.70;99.90;;;;;;5116796;28;20423;-82
2022/02/10 06:46:54;;;;;;;10.05;9.07;;;8.50;99.90;;;;;;5077479;28;20376;-83
2022/02/10 06:48:37;;;;;;;10.02;9.02;;;8.40;99.90;;;;;;5098342;28;20459;-81
2022/02/10 06:53:09;;;;;;;10.13;9.17;;;8.40;99.90;;;;;;5098219;28;20439;-81
2022/02/10 07:02:39;;;;;;;10.80;8.63;;;8.40;99.90;;;;;;5083666;28;20380;-82
2022/02/10 07:04:26;;;;;;;10.32;8.70;;;8.40;99.90;;;;;;5098941;28;20383;-82
2022/02/10 07:07:21;;;;;;;9.35;8.35;;;8.40;99.90;;;;;;5098955;28;20784;-83
2022/02/10 07:46:46;;;;;;;9.82;8.88;;;8.70;99.90;;;;;;5136425;27;20376;-82
2022/02/10 07:58:39;;;;;;;10.57;8.85;;;8.80;99.90;;;;;;5133966;27;20421;-81
2022/02/10 08:54:18;;;;;;;8.90;8.00;;;10.00;99.90;;;;;;5094226;28;20942;-81
2022/02/10 09:07:06;;;;;;;9.63;8.63;;;10.20;99.90;;;;;;5096653;28;20393;-81
2022/02/10 09:12:22;;;;;;;11.83;9.83;;;10.30;99.90;;;;;;5092050;28;20391;-80
2022/02/10 09:20:36;;;;;;;10.50;9.23;;;10.40;99.90;;;;;;5113140;28;20393;-81
2022/02/10 10:00:41;;;;;;;12.38;8.55;;;11.30;99.90;;;;;;5079103;28;20490;-82
2022/02/10 10:03:27;;;;;;;11.20;8.80;;;11.40;99.90;;;;;;5091681;28;20395;-82
2022/02/10 10:06:14;;;;;;;9.20;8.20;;;11.40;99.90;;;;;;5081611;28;20393;-82
2022/02/10 10:17:28;;;;;;;10.50;8.38;;;11.40;99.90;;;;;;5099798;28;20868;-82
2022/02/10 10:20:08;;;;;;;11.80;8.30;;;11.40;99.90;;;;;;5111076;28;20406;-82
2022/02/10 10:51:01;;;;;;;13.23;8.93;;;11.30;99.90;;;;;;5134718;27;20416;-81
2022/02/10 10:56:03;;;;;;;15.25;9.73;;;11.40;99.90;;;;;;5097656;28;20372;-82
2022/02/10 11:38:23;;;;;;;14.32;11.63;;;11.10;99.90;;;;;;5094709;28;20415;-82
2022/02/10 11:41:10;;;;;;;15.98;12.07;;;11.10;99.90;;;;;;5127130;27;20757;-81
2022/02/10 12:30:07;;;;;;;15.00;11.88;;;12.00;99.90;;;;;;5115028;28;20413;-84
2022/02/10 14:15:09;;;;;;;1.95;1.35;;;6.50;99.90;;;;;;5128710;28;20468;-82
2022/02/10 14:17:45;;;;;;;1.98;1.30;;;6.40;99.90;;;;;;5109101;28;20466;-82
2022/02/10 14:23:05;;;;;;;1.80;1.42;;;6.40;99.90;;;;;;5129448;28;20461;-82
2022/02/10 14:25:43;;;;;;;1.60;1.50;;;6.40;99.90;;;;;;5110569;28;20912;-81
2022/02/10 14:28:09;;;;;;;2.00;1.40;;;6.50;99.90;;;;;;5110068;28;20373;-83
2022/02/10 14:30:35;;;;;;;2.15;1.45;;;6.60;99.90;;;;;;5109730;28;20512;-83
2022/02/10 14:33:00;;;;;;;2.30;1.55;;;6.50;99.90;;;;;;5110273;28;20952;-82
2022/02/10 14:35:34;;;;;;;3.25;1.60;;;6.70;99.90;;;;;;5128453;28;20377;-82
2022/02/10 15:11:43;;;;;;;3.08;2.40;;;6.60;99.90;;;;;;5111481;28;20798;-83
2022/02/10 15:49:35;;;;;;;6.82;5.38;;;6.70;99.90;;;;;;5116031;28;20406;-82
2022/02/10 15:52:26;;;;;;;5.30;4.80;;;6.70;99.90;;;;;;5117596;28;20390;-82
2022/02/10 16:11:00;;;;;;;5.03;4.32;;;6.50;99.90;;;;;;5120838;28;20451;-82
2022/02/10 16:18:29;;;;;;;5.40;4.65;;;6.60;99.90;;;;;;5120313;28;20383;-81
2022/02/10 16:21:03;;;;;;;6.00;5.47;;;6.50;99.90;;;;;;5103224;28;20459;-81
2022/02/10 16:23:32;;;;;;;7.32;5.57;;;6.50;99.90;;;;;;5102253;28;20524;-81
2022/02/10 16:26:10;;;;;;;6.20;5.60;;;6.50;99.90;;;;;;5102229;28;20520;-81
2022/02/10 16:28:38;;;;;;;7.30;5.90;;;6.50;99.90;;;;;;5120360;28;20379;-81
2022/02/10 16:31:03;;;;;;;7.30;5.20;;;6.40;99.90;;;;;;5101024;28;21136;-81
2022/02/10 16:33:33;;;;;;;6.97;5.40;;;6.40;99.90;;;;;;5119191;28;20391;-81
2022/02/10 16:36:00;;;;;;;7.32;4.90;;;6.30;99.90;;;;;;5102250;28;20386;-82
2022/02/10 16:38:29;;;;;;;5.40;4.68;;;6.40;99.90;;;;;;5102736;28;20389;-81
2022/02/10 16:40:55;;;;;;;5.75;4.60;;;6.40;99.90;;;;;;5095092;27;20476;-83
2022/02/10 16:43:24;;;;;;;6.28;4.43;;;6.40;99.90;;;;;;5116952;27;20472;-82
2022/02/10 16:45:50;;;;;;;5.50;4.40;;;6.30;99.90;;;;;;5130607;27;20359;-83
2022/02/10 16:48:16;;;;;;;5.93;4.20;;;6.30;99.90;;;;;;5119672;28;20408;-82
2022/02/10 16:50:45;;;;;;;7.37;4.50;;;6.30;99.90;;;;;;5116356;28;20983;-82
2022/02/10 16:53:14;;;;;;;8.03;4.73;;;6.20;99.90;;;;;;5096491;28;20386;-82
2022/02/10 16:55:56;;;;;;;5.45;4.55;;;6.20;99.90;;;;;;5115650;28;20411;-82
2022/02/10 16:58:37;;;;;;;5.50;4.50;;;6.20;99.90;;;;;;5110366;27;20377;-82
2022/02/10 17:14:59;;;;;;;10.38;8.07;;;6.10;99.90;;;;;;5093187;28;20380;-84
2022/02/10 17:27:36;;;;;;;7.15;5.45;;;6.20;99.90;;;;;;5116784;28;20386;-83
2022/02/10 17:54:43;;;;;;;9.55;6.80;;;6.20;99.90;;;;;;5095878;28;20705;-83
2022/02/10 17:57:10;;;;;;;8.05;6.53;;;6.30;99.90;;;;;;5095379;28;20721;-83
2022/02/10 17:59:36;;;;;;;8.52;7.18;;;6.30;99.90;;;;;;5112738;28;20379;-83
2022/02/10 18:02:03;;;;;;;7.93;6.70;;;6.30;99.90;;;;;;5112511;28;20883;-82
2022/02/10 18:04:29;;;;;;;8.57;6.75;;;6.30;99.90;;;;;;5088138;28;20763;-84
2022/02/10 18:06:58;;;;;;;7.10;6.40;;;6.30;99.90;;;;;;5094286;28;20372;-83
2022/02/10 18:12:34;;;;;;;9.32;7.53;;;6.30;99.90;;;;;;5111144;28;20900;-83
2022/02/10 18:14:44;;;;;;;8.50;7.63;;;6.30;99.90;;;;;;5109946;28;20387;-83
2022/02/10 18:19:53;;;;;;;9.23;7.80;;;6.20;99.90;;;;;;5111974;28;20369;-82
2022/02/10 18:27:55;;;;;;;7.43;6.32;;;6.30;99.90;;;;;;5063709;28;20753;-81
2022/02/10 18:30:25;;;;;;;8.07;5.72;;;6.20;99.90;;;;;;5080502;28;20406;-81
2022/02/10 19:08:12;;;;;;;7.15;6.40;;;6.30;99.90;;;;;;5119070;28;20868;-82
2022/02/10 19:10:46;;;;;;;8.03;6.13;;;6.20;99.90;;;;;;5115885;28;20477;-82
2022/02/10 19:13:15;;;;;;;8.75;6.88;;;6.20;99.90;;;;;;5087268;28;20395;-82
2022/02/10 19:15:41;;;;;;;8.20;6.70;;;6.20;99.90;;;;;;5086282;27;20392;-83
2022/02/10 19:18:09;;;;;;;9.07;7.10;;;6.10;99.90;;;;;;5123296;27;20507;-81
2022/02/10 19:20:37;;;;;;;8.10;6.80;;;6.20;99.90;;;;;;5112821;27;20410;-82
2022/02/10 19:23:06;;;;;;;9.60;7.28;;;6.10;99.90;;;;;;5135011;27;20416;-82
2022/02/10 19:25:36;;;;;;;8.55;7.15;;;6.10;99.90;;;;;;5128022;27;20404;-81
2022/02/10 19:28:02;;;;;;;8.13;7.18;;;6.10;99.90;;;;;;5094591;28;20917;-82
2022/02/10 19:30:31;;;;;;;9.80;7.80;;;6.10;99.90;;;;;;5095303;28;20478;-83
2022/02/10 19:32:59;;;;;;;8.80;7.97;;;6.20;99.90;;;;;;5115044;28;20374;-82
2022/02/10 19:35:28;;;;;;;9.47;8.13;;;6.20;99.90;;;;;;5095126;28;20415;-82
2022/02/10 19:37:59;;;;;;;10.18;8.48;;;6.10;99.90;;;;;;5102145;27;20384;-79
2022/02/10 19:40:28;;;;;;;9.18;8.27;;;6.10;99.90;;;;;;5081817;27;20405;-80
2022/02/10 19:42:55;;;;;;;8.80;7.90;;;6.10;99.90;;;;;;5131559;27;20380;-80
2022/02/10 19:45:24;;;;;;;10.38;8.48;;;6.10;99.90;;;;;;5116105;27;20408;-81
2022/02/10 19:47:52;;;;;;;10.40;8.80;;;6.20;99.90;;;;;;5117935;27;20374;-81
2022/02/10 19:50:25;;;;;;;9.70;8.70;;;6.10;99.90;;;;;;5105111;27;20455;-80
2022/02/10 19:52:53;;;;;;;9.38;8.48;;;6.20;99.90;;;;;;5073022;28;20471;-81
2022/02/10 19:55:21;;;;;;;9.55;8.65;;;6.30;99.90;;;;;;5071928;28;21146;-80
2022/02/10 19:57:50;;;;;;;10.18;9.18;;;6.20;99.90;;;;;;5091283;28;20380;-81
2022/02/10 20:00:20;;;;;;;10.85;9.70;;;6.20;99.90;;;;;;5090906;28;20388;-80
2022/02/10 20:02:47;;;;;;;12.32;10.05;;;6.30;99.90;;;;;;5093341;28;20390;-81
2022/02/10 20:05:13;;;;;;;12.05;9.95;;;6.30;99.90;;;;;;5091840;28;20380;-82
2022/02/10 20:07:41;;;;;;;12.10;10.68;;;6.20;99.90;;;;;;5092858;28;20491;-81
2022/02/10 20:10:08;;;;;;;14.27;11.33;;;6.20;99.90;;;;;;5074007;28;20436;-81
2022/02/10 20:12:35;;;;;;;13.35;11.55;;;6.20;99.90;;;;;;5090861;28;20422;-81
2022/02/10 20:15:01;;;;;;;13.05;11.15;;;6.30;99.90;;;;;;5098268;28;20859;-81
2022/02/10 20:17:27;;;;;;;13.50;11.38;;;6.20;99.90;;;;;;5097572;28;20383;-81
2022/02/10 20:19:53;;;;;;;13.80;12.25;;;6.20;99.90;;;;;;5076342;28;20773;-81
2022/02/10 20:22:18;;;;;;;13.68;11.18;;;6.30;99.90;;;;;;5099644;27;20400;-81
2022/02/10 20:24:45;;;;;;;14.73;11.80;;;6.20;99.90;;;;;;5098171;27;20388;-81
2022/02/10 20:27:11;;;;;;;15.23;12.73;;;6.20;99.90;;;;;;5098267;28;20439;-82
2022/02/10 20:29:36;;;;;;;14.63;12.47;;;6.20;99.90;;;;;;5076891;28;20396;-82
2022/02/10 20:32:02;;;;;;;14.87;12.40;;;6.20;99.90;;;;;;5080909;28;20462;-81
2022/02/10 20:34:30;;;;;;;16.77;12.70;;;6.30;99.90;;;;;;5077940;28;20389;-81
2022/02/10 20:36:57;;;;;;;17.00;12.05;;;6.20;99.90;;;;;;5108656;28;20402;-81
2022/02/10 20:39:26;;;;;;;16.65;12.80;;;6.30;99.90;;;;;;5098357;27;20869;-81
2022/02/10 20:42:00;;;;;;;15.88;13.10;;;6.20;99.90;;;;;;5099918;28;20398;-80
2022/02/10 20:44:27;;;;;;;15.98;13.05;;;6.20;99.90;;;;;;5104083;27;20472;-81
2022/02/10 20:46:52;;;;;;;16.52;12.68;;;6.20;99.90;;;;;;5111493;28;20436;-81
2022/02/10 20:49:18;;;;;;;16.47;12.77;;;6.20;99.90;;;;;;5110688;27;20385;-80
2022/02/10 20:51:47;;;;;;;14.88;12.48;;;6.20;99.90;;;;;;5113101;28;20462;-81
2022/02/10 20:54:14;;;;;;;15.95;13.05;;;6.20;99.90;;;;;;5110523;28;20414;-82
2022/02/10 20:56:40;;;;;;;18.00;13.17;;;6.30;99.90;;;;;;5092942;28;20386;-82
2022/02/10 20:59:20;;;;;;;16.93;12.97;;;6.30;99.90;;;;;;5110633;28;20378;-81
2022/02/10 21:01:56;;;;;;;17.67;13.05;;;6.30;99.90;;;;;;5110769;28;20383;-81
2022/02/10 21:04:22;;;;;;;14.80;12.60;;;6.20;99.90;;;;;;5092960;28;20393;-81
2022/02/10 21:06:57;;;;;;;15.43;12.60;;;6.20;99.90;;;;;;5109417;28;20381;-81
2022/02/10 21:12:10;;;;;;;14.43;11.82;;;6.20;99.90;;;;;;5112190;28;20378;-80
2022/02/10 21:14:36;;;;;;;17.10;12.43;;;6.30;99.90;;;;;;5092147;28;20386;-81
2022/02/10 21:17:08;;;;;;;14.95;11.40;;;6.30;99.90;;;;;;5110597;28;20887;-81
2022/02/10 21:19:34;;;;;;;20.40;12.73;;;6.30;99.90;;;;;;5090181;28;20737;-81
2022/02/10 21:22:07;;;;;;;18.83;12.67;;;6.30;99.90;;;;;;5088427;28;20399;-80
2022/02/10 21:24:34;;;;;;;13.90;11.57;;;6.30;99.90;;;;;;5092930;28;20390;-81
2022/02/10 21:29:32;;;;;;;16.25;12.27;;;6.30;99.90;;;;;;5106831;27;20489;-81
2022/02/10 21:32:00;;;;;;;10.70;6.63;;;6.40;99.90;;;;;;5103338;28;20470;-81
2022/02/10 21:34:30;;;;;;;8.82;5.03;;;6.20;99.90;;;;;;5101870;28;20485;-80
2022/02/10 21:37:09;;;;;;;10.02;4.45;;;5.50;99.90;;;;;;5104029;28;20775;-82
2022/02/10 21:39:51;;;;;;;8.27;3.95;;;5.20;99.90;;;;;;5102727;28;20418;-81
2022/02/10 21:54:24;;;;;;;9.68;4.57;;;3.90;99.90;;;;;;5100040;28;20871;-82
2022/02/10 22:21:19;;;;;;;9.68;5.53;;;3.90;99.90;;;;;;5099523;28;20957;-84
2022/02/10 22:23:41;;;;;;;12.65;5.95;;;4.10;99.90;;;;;;5105328;28;20388;-83
2022/02/10 22:26:08;;;;;;;14.40;5.30;;;4.10;99.90;;;;;;5087258;28;20382;-83
2022/02/10 22:28:46;;;;;;;10.43;5.18;;;4.20;99.90;;;;;;5093555;27;20389;-83
2022/02/10 22:34:02;;;;;;;11.75;5.32;;;4.20;99.90;;;;;;5111125;28;20383;-84
2022/02/10 22:36:28;;;;;;;7.95;4.72;;;4.20;99.90;;;;;;5075686;28;20487;-83
2022/02/10 22:39:00;;;;;;;12.37;5.43;;;4.20;99.90;;;;;;5100773;27;20478;-84
2022/02/10 22:41:26;;;;;;;12.27;5.05;;;4.30;99.90;;;;;;5077528;28;20567;-83
2022/02/10 22:43:52;;;;;;;10.10;5.13;;;4.20;99.90;;;;;;5104367;27;20435;-83
2022/02/10 22:46:19;;;;;;;13.52;5.35;;;4.20;99.90;;;;;;5088025;28;20389;-83
2022/02/10 22:48:48;;;;;;;9.57;4.30;;;4.20;99.90;;;;;;5086910;27;20389;-82
2022/02/10 22:51:16;;;;;;;9.80;4.72;;;4.20;99.90;;;;;;5096505;27;20380;-84
2022/02/10 22:53:42;;;;;;;11.55;4.80;;;4.20;99.90;;;;;;5077672;28;20871;-83
2022/02/10 22:56:10;;;;;;;7.83;4.40;;;4.20;99.90;;;;;;5094910;28;20439;-83
2022/02/10 22:58:40;;;;;;;9.68;5.00;;;4.10;99.90;;;;;;5099061;28;20793;-83
2022/02/10 23:01:09;;;;;;;13.88;5.40;;;4.10;99.90;;;;;;5098560;28;20376;-83
2022/02/10 23:03:39;;;;;;;10.35;5.75;;;4.10;99.90;;;;;;5096675;28;20401;-82
2022/02/10 23:06:07;;;;;;;11.75;6.00;;;4.10;99.90;;;;;;5096055;28;21032;-83
2022/02/10 23:08:33;;;;;;;10.73;6.55;;;4.10;99.90;;;;;;5076168;28;20991;-83
2022/02/10 23:11:00;;;;;;;12.50;6.25;;;4.00;99.90;;;;;;5095320;28;20396;-83
2022/02/10 23:13:29;;;;;;;12.88;6.70;;;4.10;99.90;;;;;;5094643;28;20468;-82
2022/02/10 23:15:58;;;;;;;15.83;6.87;;;4.00;99.90;;;;;;5075635;28;20428;-83
2022/02/10 23:18:26;;;;;;;12.25;6.50;;;4.00;99.90;;;;;;5095041;28;20423;-82
2022/02/10 23:20:54;;;;;;;10.23;6.78;;;4.00;99.90;;;;;;5091631;28;20387;-82
2022/02/10 23:23:21;;;;;;;10.52;6.38;;;4.00;99.90;;;;;;5087598;28;20499;-82
2022/02/10 23:25:50;;;;;;;13.18;7.25;;;3.90;99.90;;;;;;5095488;28;20851;-82
2022/02/10 23:28:25;;;;;;;10.55;7.00;;;3.90;99.90;;;;;;5095956;28;20392;-82
2022/02/10 23:30:52;;;;;;;15.60;7.53;;;3.90;99.90;;;;;;5110629;28;20405;-82
2022/02/10 23:38:54;;;;;;;14.40;7.93;;;3.90;99.90;;;;;;5098731;28;20919;-82
2022/02/10 23:43:59;;;;;;;11.93;7.47;;;3.90;99.90;;;;;;5110451;28;20895;-82
2022/02/10 23:46:25;;;;;;;8.95;7.65;;;3.90;99.90;;;;;;5087253;28;20445;-82
2022/02/10 23:48:54;;;;;;;12.60;8.38;;;4.00;99.90;;;;;;5097301;28;20834;-83
2022/02/10 23:51:22;;;;;;;11.97;7.63;;;4.00;99.90;;;;;;5105250;27;20435;-81
2022/02/10 23:53:47;;;;;;;11.88;8.43;;;3.90;99.90;;;;;;5104560;28;20383;-82
2022/02/10 23:56:16;;;;;;;12.25;8.35;;;4.00;99.90;;;;;;5117042;28;20389;-83
